Epic Bermuda — 9HGF9 — position and weather

sailwx.info

Track history (hours):
 
Tides and Currents Weather Stations Pressure Air Temp Water Temp Dewpoint Dewpoint Depression Visibility Wind Speed Wind Dir Waves Ship Positions

Epic Bermuda

Last reported at 2017-Oct-19 01:29 UTC. Time now 2017-Oct-19 02:01 UTC.
Position N 37°57' W 008°53'.

Length 119 m; draft 5.9 m.

MMSI: 256942000.

Date/timePositionNaut miles runAvg speedWind from/ knotsBaromVisibWave heightAir tempDewpointWater temp
2017-Oct-19 01:29N 37°57' W 008°53'0 0.0
2017-Oct-19 00:59N 37°57' W 008°53'0 0.0
2017-Oct-19 00:29N 37°57' W 008°53'0 0.0
2017-Oct-18 23:59N 37°57' W 008°53'0 0.0
2017-Oct-18 23:29N 37°57' W 008°53'0 0.0
2017-Oct-18 22:59N 37°57' W 008°53'0 0.0
2017-Oct-18 22:29N 37°57' W 008°53'0 0.0
2017-Oct-18 21:59N 37°57' W 008°53'0 0.0
2017-Oct-18 21:29N 37°57' W 008°53'0 0.0
2017-Oct-18 20:59N 37°57' W 008°53'0 0.0
2017-Oct-18 20:29N 37°57' W 008°53'0 0.0
2017-Oct-18 19:59N 37°57' W 008°53'0 0.0
2017-Oct-18 19:29N 37°57' W 008°53'0 0.0
2017-Oct-18 18:59N 37°57' W 008°53'0 0.0
2017-Oct-18 18:29N 37°57' W 008°53'0 0.0
2017-Oct-18 17:59N 37°57' W 008°53'0 0.0
2017-Oct-18 17:29N 37°57' W 008°53'0 0.0
2017-Oct-18 16:59N 37°57' W 008°53'0 0.0
2017-Oct-18 16:28N 37°57' W 008°53'0 0.0
2017-Oct-18 15:58N 37°57' W 008°53'0 0.0
2017-Oct-18 15:28N 37°57' W 008°53'0 0.0
2017-Oct-18 14:58N 37°57' W 008°53'0 0.0
2017-Oct-18 14:00N 37°57' W 008°53'0 0.1
2017-Oct-18 13:30N 37°57' W 008°53'2 3.8
2017-Oct-18 13:00N 37°55' W 008°52'0 0.3
2017-Oct-18 12:30N 37°55' W 008°52'0 0.0
2017-Oct-18 12:00N 37°55' W 008°52'0 0.0
2017-Oct-18 11:30N 37°55' W 008°52'0 0.0
2017-Oct-18 11:00N 37°55' W 008°52'0 0.0
2017-Oct-18 10:30N 37°55' W 008°52'0 0.0
2017-Oct-18 10:00N 37°55' W 008°52'0 0.0
2017-Oct-18 09:30N 37°55' W 008°52'0 0.0
2017-Oct-18 09:00N 37°55' W 008°52'0 0.0
2017-Oct-18 08:30N 37°55' W 008°52'0 0.0
2017-Oct-18 08:00N 37°55' W 008°52'0 0.0
2017-Oct-18 07:30N 37°55' W 008°52'0 0.0
2017-Oct-18 07:00N 37°55' W 008°52'0 0.0
2017-Oct-18 06:31N 37°55' W 008°52'0 0.1
2017-Oct-18 06:01N 37°55' W 008°52'0 0.4
2017-Oct-18 05:30N 37°55' W 008°52'4 7.2
2017-Oct-18 05:00N 37°52' W 008°54'0 0.9
2017-Oct-18 04:30N 37°52' W 008°55'510.1
2017-Oct-18 04:00N 37°47' W 008°56'611.4
2017-Oct-18 03:30N 37°41' W 008°59'612.1
2017-Oct-18 03:01N 37°36' W 009°02'612.3
2017-Oct-18 02:30N 37°31' W 009°06'55 9.0
2017-Oct-17 20:23N 36°37' W 008°54'16012.4
2017-Oct-17 07:25N 35°57' W 005°41'512.4
2017-Oct-17 07:00N 35°58' W 005°35'611.7
2017-Oct-17 06:30N 35°60' W 005°28'611.8
2017-Oct-17 06:00N 36°01' W 005°21'612.9
2017-Oct-17 05:30N 36°03' W 005°13'22112.3
2017-Oct-16 11:37N 37°19' W 000°55'213.0
2017-Oct-16 11:29N 37°21' W 000°53'612.8
2017-Oct-16 10:59N 37°25' W 000°47'1113.0
2017-Oct-16 10:10N 37°32' W 000°37'213.2
2017-Oct-16 10:00N 37°33' W 000°35'713.2
2017-Oct-16 09:30N 37°38' W 000°30'713.1
2017-Oct-16 09:00N 37°44' W 000°25'32312.8
2017-Oct-15 07:43N 42°00' E 003°50'412.7
2017-Oct-15 07:26N 42°03' E 003°53'6012.6
2017-Oct-15 02:41N 42°51' E 004°42'1 2.4
2017-Oct-15 02:24N 42°51' E 004°42'4 9.9
2017-Oct-15 02:00N 42°54' E 004°45'713.3
2017-Oct-15 01:27N 43°00' E 004°52'612.9
2017-Oct-15 00:58N 43°05' E 004°57'2 3.8
2017-Oct-15 00:19N 43°07' E 004°59'5 7.2
2017-Oct-14 23:37N 43°12' E 004°59'112.9
2017-Oct-14 23:31N 43°13' E 004°59'612.3
2017-Oct-14 23:00N 43°20' E 004°59'4 8.5
2017-Oct-14 22:30N 43°24' E 004°59'0 0.4
2017-Oct-14 21:51N 43°24' E 004°60'0 0.0
2017-Oct-14 21:30N 43°24' E 004°60'0 0.0
2017-Oct-14 21:00N 43°24' E 004°60'0 0.0
2017-Oct-14 20:27N 43°24' E 004°60'0 0.0
2017-Oct-14 19:57N 43°24' E 004°60'0 0.0
2017-Oct-14 19:30N 43°24' E 004°60'0 0.0
2017-Oct-14 19:00N 43°24' E 004°60'0 0.0
2017-Oct-14 18:27N 43°24' E 004°60'0 0.0
2017-Oct-14 18:00N 43°24' E 004°60'0 0.0
2017-Oct-14 17:30N 43°24' E 004°60'0 0.0
2017-Oct-14 16:57N 43°24' E 004°60'0 0.0
2017-Oct-14 16:27N 43°24' E 004°60'0 0.0
2017-Oct-14 16:00N 43°24' E 004°60'0 0.0
2017-Oct-14 15:30N 43°24' E 004°60'0 0.0
2017-Oct-14 15:00N 43°24' E 004°60'0 0.0
2017-Oct-14 14:30N 43°24' E 004°60'0 0.0
2017-Oct-14 14:00N 43°24' E 004°60'0 0.0
2017-Oct-14 13:30N 43°24' E 004°60'0 0.0
2017-Oct-14 12:57N 43°24' E 004°60'0 0.0
2017-Oct-14 12:30N 43°24' E 004°60'0 0.0
2017-Oct-14 12:00N 43°24' E 004°60'0 0.0
2017-Oct-14 11:27N 43°24' E 004°60'0 0.0
2017-Oct-14 10:57N 43°24' E 004°60'0 0.0
2017-Oct-14 10:30N 43°24' E 004°60'0 0.0
2017-Oct-14 09:57N 43°24' E 004°60'0 0.0
2017-Oct-14 09:30N 43°24' E 004°60'0 0.0
2017-Oct-14 09:00N 43°24' E 004°60'0 0.0
2017-Oct-14 08:30N 43°24' E 004°60'0 0.0
2017-Oct-14 07:57N 43°24' E 004°60'0 0.0
2017-Oct-14 07:30N 43°24' E 004°60'0 0.0
2017-Oct-14 07:00N 43°24' E 004°60'0 0.0
2017-Oct-14 06:30N 43°24' E 004°60'0 0.6
2017-Oct-14 06:00N 43°24' E 004°59'1 2.1
2017-Oct-14 05:26N 43°24' E 004°58'0 0.0
2017-Oct-14 04:59N 43°24' E 004°58'0 0.0
2017-Oct-14 04:29N 43°24' E 004°58'0 0.0
2017-Oct-14 03:59N 43°24' E 004°58'0 0.0
2017-Oct-14 03:26N 43°24' E 004°58'0 0.0
2017-Oct-14 02:59N 43°24' E 004°58'0 0.0
2017-Oct-14 02:26N 43°24' E 004°58'0 0.0
2017-Oct-14 01:59N 43°24' E 004°58'0 0.0
2017-Oct-14 01:29N 43°24' E 004°58'0 0.0
2017-Oct-14 00:59N 43°24' E 004°58'0 0.0
2017-Oct-14 00:29N 43°24' E 004°58'0 0.0
2017-Oct-13 23:59N 43°24' E 004°58'0 0.0
2017-Oct-13 23:29N 43°24' E 004°58'0 0.0
2017-Oct-13 22:59N 43°24' E 004°58'0 0.0
2017-Oct-13 22:29N 43°24' E 004°58'0 0.0
2017-Oct-13 21:59N 43°24' E 004°58'0 0.0
2017-Oct-13 21:29N 43°24' E 004°58'0 0.0
2017-Oct-13 20:59N 43°24' E 004°58'0 0.0
2017-Oct-13 20:29N 43°24' E 004°58'0 0.0
2017-Oct-13 19:59N 43°24' E 004°58'0 0.0
2017-Oct-13 19:26N 43°24' E 004°58'0 0.0
2017-Oct-13 18:56N 43°24' E 004°58'0 0.1
2017-Oct-13 18:29N 43°24' E 004°58'0 0.0
2017-Oct-13 17:59N 43°24' E 004°58'0 0.0
2017-Oct-13 17:29N 43°24' E 004°58'0 0.0
2017-Oct-13 16:59N 43°24' E 004°58'0 0.0
2017-Oct-13 16:29N 43°24' E 004°58'0 0.0
2017-Oct-13 15:59N 43°24' E 004°58'0 0.0
2017-Oct-13 15:27N 43°24' E 004°58'0 0.0
2017-Oct-13 14:59N 43°24' E 004°58'0 0.0
2017-Oct-13 14:29N 43°24' E 004°58'0 0.0
2017-Oct-13 13:59N 43°24' E 004°58'0 0.0
2017-Oct-13 13:29N 43°24' E 004°58'0 0.0
2017-Oct-13 12:59N 43°24' E 004°58'0 0.0
2017-Oct-13 12:29N 43°24' E 004°58'0 0.0
2017-Oct-13 11:59N 43°24' E 004°58'0 0.0
2017-Oct-13 11:30N 43°24' E 004°58'0 0.0
2017-Oct-13 10:59N 43°24' E 004°58'0 0.0
2017-Oct-13 10:29N 43°24' E 004°58'0 0.0
2017-Oct-13 09:59N 43°24' E 004°58'0 0.0
2017-Oct-13 09:29N 43°24' E 004°58'0 0.0
2017-Oct-13 08:59N 43°24' E 004°58'0 0.0
2017-Oct-13 08:26N 43°24' E 004°58'0 0.0
2017-Oct-13 07:59N 43°24' E 004°58'0 0.0
2017-Oct-13 07:30N 43°24' E 004°58'0 0.0
2017-Oct-13 06:57N 43°24' E 004°58'0 0.0
2017-Oct-13 06:29N 43°24' E 004°58'0 0.0
2017-Oct-13 05:56N 43°24' E 004°58'0 0.0
2017-Oct-13 05:26N 43°24' E 004°58'0 0.0
2017-Oct-13 04:59N 43°24' E 004°58'0 0.1
2017-Oct-13 04:29N 43°24' E 004°58'0 0.0
2017-Oct-13 03:59N 43°24' E 004°58'0 0.0
2017-Oct-13 03:29N 43°24' E 004°58'0 0.0
2017-Oct-13 02:59N 43°24' E 004°58'0 0.0
2017-Oct-13 02:29N 43°24' E 004°58'0 0.0
2017-Oct-13 01:59N 43°24' E 004°58'0 0.0
2017-Oct-13 01:29N 43°24' E 004°58'0 0.0
2017-Oct-13 00:59N 43°24' E 004°58'0 0.0
2017-Oct-13 00:26N 43°24' E 004°58'0 0.0
2017-Oct-12 23:56N 43°24' E 004°58'0 0.0
2017-Oct-12 23:29N 43°24' E 004°58'0 0.1
2017-Oct-12 22:59N 43°24' E 004°58'0 0.1
2017-Oct-12 22:29N 43°24' E 004°58'0 0.0
2017-Oct-12 21:59N 43°24' E 004°58'0 0.0
2017-Oct-12 21:29N 43°24' E 004°58'0 0.0
2017-Oct-12 20:56N 43°24' E 004°58'0 0.0
2017-Oct-12 20:29N 43°24' E 004°58'0 0.0
2017-Oct-12 19:59N 43°24' E 004°58'0 0.1
2017-Oct-12 19:29N 43°24' E 004°58'1 1.5
2017-Oct-12 19:00N 43°23' E 004°59'1 1.7
2017-Oct-12 18:30N 43°24' E 004°60'0 0.0
2017-Oct-12 17:59N 43°24' E 004°60'0 0.0
2017-Oct-12 17:29N 43°24' E 004°60'0 0.0
2017-Oct-12 16:59N 43°24' E 004°60'0 0.0
2017-Oct-12 16:29N 43°24' E 004°60'0 0.0
2017-Oct-12 15:59N 43°24' E 004°60'0 0.0
2017-Oct-12 15:26N 43°24' E 004°60'0 0.0
2017-Oct-12 14:59N 43°24' E 004°60'0 0.0
2017-Oct-12 14:26N 43°24' E 004°60'0 0.0
2017-Oct-12 13:59N 43°24' E 004°60'0 0.0
2017-Oct-12 13:26N 43°24' E 004°60'0 0.0
2017-Oct-12 12:56N 43°24' E 004°60'0 0.0
2017-Oct-12 12:29N 43°24' E 004°60'0 0.0
2017-Oct-12 11:50N 43°24' E 004°60'0 0.0
2017-Oct-12 11:26N 43°24' E 004°60'0 0.0
2017-Oct-12 10:53N 43°24' E 004°60'0 0.0
2017-Oct-12 10:29N 43°24' E 004°60'0 0.0
2017-Oct-12 09:59N 43°24' E 004°60'0 0.0
2017-Oct-12 09:29N 43°24' E 004°60'0 0.0
2017-Oct-12 08:59N 43°24' E 004°60'0 0.0
2017-Oct-12 08:26N 43°24' E 004°60'0 0.0
2017-Oct-12 07:59N 43°24' E 004°60'0 0.0
2017-Oct-12 07:29N 43°24' E 004°60'0 0.0
2017-Oct-12 06:59N 43°24' E 004°60'0 0.0
2017-Oct-12 06:29N 43°24' E 004°60'0 0.0
2017-Oct-12 05:56N 43°24' E 004°60'0 0.0
2017-Oct-12 05:26N 43°24' E 004°60'0 0.0
2017-Oct-12 04:59N 43°24' E 004°60'0 0.0
2017-Oct-12 04:26N 43°24' E 004°60'0 0.0
2017-Oct-12 03:56N 43°24' E 004°60'0 0.0
2017-Oct-12 03:26N 43°24' E 004°60'0 0.0
2017-Oct-12 02:59N 43°24' E 004°60'0 0.0
2017-Oct-12 02:29N 43°24' E 004°60'0 0.0
2017-Oct-12 01:56N 43°24' E 004°60'0 0.0
2017-Oct-12 01:29N 43°24' E 004°60'0 0.0
2017-Oct-12 00:59N 43°24' E 004°60'0 0.0
2017-Oct-12 00:26N 43°24' E 004°60'0 0.0
2017-Oct-11 23:56N 43°24' E 004°60'0 0.0
2017-Oct-11 23:26N 43°24' E 004°60'0 0.0
2017-Oct-11 22:59N 43°24' E 004°60'0 0.0
2017-Oct-11 22:29N 43°24' E 004°60'0 0.0
2017-Oct-11 21:59N 43°24' E 004°60'0 0.0
2017-Oct-11 21:29N 43°24' E 004°60'0 0.0
2017-Oct-11 20:59N 43°24' E 004°60'0 0.0
2017-Oct-11 20:29N 43°24' E 004°60'0 0.0
2017-Oct-11 19:59N 43°24' E 004°60'0 0.0
2017-Oct-11 19:29N 43°24' E 004°60'0 0.0
2017-Oct-11 18:56N 43°24' E 004°60'0 0.0
2017-Oct-11 18:26N 43°24' E 004°60'0 0.0
2017-Oct-11 17:59N 43°24' E 004°60'0 0.0
2017-Oct-11 17:29N 43°24' E 004°60'0 0.0
2017-Oct-11 16:59N 43°24' E 004°60'0 0.0
2017-Oct-10 23:56N 43°24' E 004°60'0 0.0
2017-Oct-10 23:29N 43°24' E 004°60'0 0.0
2017-Oct-10 22:56N 43°24' E 004°60'0 0.0
2017-Oct-10 22:30N 43°24' E 004°60'0 0.0
2017-Oct-10 22:00N 43°24' E 004°60'0 0.0
2017-Oct-10 21:30N 43°24' E 004°60'0 0.0
2017-Oct-10 21:00N 43°24' E 004°60'0 0.0
2017-Oct-10 20:30N 43°24' E 004°60'1 2.7
2017-Oct-10 20:00N 43°24' E 004°58'1 1.1
2017-Oct-10 19:28N 43°24' E 004°57'0 0.0
2017-Oct-10 18:58N 43°24' E 004°57'0 0.0
2017-Oct-10 18:28N 43°24' E 004°57'0 0.0
2017-Oct-10 17:58N 43°24' E 004°57'0 0.0
2017-Oct-10 17:28N 43°24' E 004°57'0 0.1
2017-Oct-10 16:58N 43°24' E 004°57'0 0.0
2017-Oct-10 16:28N 43°24' E 004°57'0 0.0
2017-Oct-10 15:58N 43°24' E 004°57'0 0.0
2017-Oct-10 15:28N 43°24' E 004°57'0 0.0
2017-Oct-10 14:58N 43°24' E 004°57'0 0.1
2017-Oct-10 13:58N 43°24' E 004°57'0 0.0
2017-Oct-10 13:28N 43°24' E 004°57'0 0.0
2017-Oct-10 12:55N 43°24' E 004°57'0 0.1
2017-Oct-10 12:28N 43°24' E 004°57'0 0.0
2017-Oct-10 11:55N 43°24' E 004°57'0 0.0
2017-Oct-10 11:25N 43°24' E 004°57'0 0.0
2017-Oct-10 10:58N 43°24' E 004°57'0 0.2
2017-Oct-10 10:29N 43°24' E 004°57'3 6.6
2017-Oct-10 10:00N 43°21' E 004°58'3 6.7
2017-Oct-10 09:30N 43°18' E 004°60'510.6
2017-Oct-10 09:00N 43°13' E 005°02'510.3
2017-Oct-10 08:30N 43°08' E 004°60'612.0
2017-Oct-10 08:00N 43°03' E 004°55'612.1
2017-Oct-10 07:30N 42°59' E 004°50'612.2
2017-Oct-10 07:00N 42°54' E 004°45'612.3
2017-Oct-10 06:30N 42°49' E 004°40'35213.2
2017-Oct-09 03:47N 38°09' W 000°00'413.6
2017-Oct-09 03:30N 38°06' W 000°03'713.5
2017-Oct-09 03:00N 38°00' W 000°08'1113.5
2017-Oct-09 02:09N 37°51' W 000°16'313.6
2017-Oct-09 01:57N 37°48' W 000°18'613.8
2017-Oct-09 01:30N 37°43' W 000°22'  
Track history (hours):
 
Tides and Currents Weather Stations Pressure Air Temp Water Temp Dewpoint Dewpoint Depression Visibility Wind Speed Wind Dir Waves Ship Positions

Epic Bermuda

Last reported at 2017-Oct-19 01:29 UTC. Time now 2017-Oct-19 02:01 UTC.
Position N 37°57' W 008°53'.

Length 119 m; draft 5.9 m.

MMSI: 256942000.

Date/timePositionNaut miles runAvg speedWind from/ knotsBaromVisibWave heightAir tempDewpointWater temp
2017-Oct-19 01:29N 37°57' W 008°53'0 0.0
2017-Oct-19 00:59N 37°57' W 008°53'0 0.0
2017-Oct-19 00:29N 37°57' W 008°53'0 0.0
2017-Oct-18 23:59N 37°57' W 008°53'0 0.0
2017-Oct-18 23:29N 37°57' W 008°53'0 0.0
2017-Oct-18 22:59N 37°57' W 008°53'0 0.0
2017-Oct-18 22:29N 37°57' W 008°53'0 0.0
2017-Oct-18 21:59N 37°57' W 008°53'0 0.0
2017-Oct-18 21:29N 37°57' W 008°53'0 0.0
2017-Oct-18 20:59N 37°57' W 008°53'0 0.0
2017-Oct-18 20:29N 37°57' W 008°53'0 0.0
2017-Oct-18 19:59N 37°57' W 008°53'0 0.0
2017-Oct-18 19:29N 37°57' W 008°53'0 0.0
2017-Oct-18 18:59N 37°57' W 008°53'0 0.0
2017-Oct-18 18:29N 37°57' W 008°53'0 0.0
2017-Oct-18 17:59N 37°57' W 008°53'0 0.0
2017-Oct-18 17:29N 37°57' W 008°53'0 0.0
2017-Oct-18 16:59N 37°57' W 008°53'0 0.0
2017-Oct-18 16:28N 37°57' W 008°53'0 0.0
2017-Oct-18 15:58N 37°57' W 008°53'0 0.0
2017-Oct-18 15:28N 37°57' W 008°53'0 0.0
2017-Oct-18 14:58N 37°57' W 008°53'0 0.0
2017-Oct-18 14:00N 37°57' W 008°53'0 0.1
2017-Oct-18 13:30N 37°57' W 008°53'2 3.8
2017-Oct-18 13:00N 37°55' W 008°52'0 0.3
2017-Oct-18 12:30N 37°55' W 008°52'0 0.0
2017-Oct-18 12:00N 37°55' W 008°52'0 0.0
2017-Oct-18 11:30N 37°55' W 008°52'0 0.0
2017-Oct-18 11:00N 37°55' W 008°52'0 0.0
2017-Oct-18 10:30N 37°55' W 008°52'0 0.0
2017-Oct-18 10:00N 37°55' W 008°52'0 0.0
2017-Oct-18 09:30N 37°55' W 008°52'0 0.0
2017-Oct-18 09:00N 37°55' W 008°52'0 0.0
2017-Oct-18 08:30N 37°55' W 008°52'0 0.0
2017-Oct-18 08:00N 37°55' W 008°52'0 0.0
2017-Oct-18 07:30N 37°55' W 008°52'0 0.0
2017-Oct-18 07:00N 37°55' W 008°52'0 0.0
2017-Oct-18 06:31N 37°55' W 008°52'0 0.1
2017-Oct-18 06:01N 37°55' W 008°52'0 0.4
2017-Oct-18 05:30N 37°55' W 008°52'4 7.2
2017-Oct-18 05:00N 37°52' W 008°54'0 0.9
2017-Oct-18 04:30N 37°52' W 008°55'510.1
2017-Oct-18 04:00N 37°47' W 008°56'611.4
2017-Oct-18 03:30N 37°41' W 008°59'612.1
2017-Oct-18 03:01N 37°36' W 009°02'612.3
2017-Oct-18 02:30N 37°31' W 009°06'55 9.0
2017-Oct-17 20:23N 36°37' W 008°54'16012.4
2017-Oct-17 07:25N 35°57' W 005°41'512.4
2017-Oct-17 07:00N 35°58' W 005°35'611.7
2017-Oct-17 06:30N 35°60' W 005°28'611.8
2017-Oct-17 06:00N 36°01' W 005°21'612.9
2017-Oct-17 05:30N 36°03' W 005°13'22112.3
2017-Oct-16 11:37N 37°19' W 000°55'213.0
2017-Oct-16 11:29N 37°21' W 000°53'612.8
2017-Oct-16 10:59N 37°25' W 000°47'1113.0
2017-Oct-16 10:10N 37°32' W 000°37'213.2
2017-Oct-16 10:00N 37°33' W 000°35'713.2
2017-Oct-16 09:30N 37°38' W 000°30'713.1
2017-Oct-16 09:00N 37°44' W 000°25'32312.8
2017-Oct-15 07:43N 42°00' E 003°50'412.7
2017-Oct-15 07:26N 42°03' E 003°53'6012.6
2017-Oct-15 02:41N 42°51' E 004°42'1 2.4
2017-Oct-15 02:24N 42°51' E 004°42'4 9.9
2017-Oct-15 02:00N 42°54' E 004°45'713.3
2017-Oct-15 01:27N 43°00' E 004°52'612.9
2017-Oct-15 00:58N 43°05' E 004°57'2 3.8
2017-Oct-15 00:19N 43°07' E 004°59'5 7.2
2017-Oct-14 23:37N 43°12' E 004°59'112.9
2017-Oct-14 23:31N 43°13' E 004°59'612.3
2017-Oct-14 23:00N 43°20' E 004°59'4 8.5
2017-Oct-14 22:30N 43°24' E 004°59'0 0.4
2017-Oct-14 21:51N 43°24' E 004°60'0 0.0
2017-Oct-14 21:30N 43°24' E 004°60'0 0.0
2017-Oct-14 21:00N 43°24' E 004°60'0 0.0
2017-Oct-14 20:27N 43°24' E 004°60'0 0.0
2017-Oct-14 19:57N 43°24' E 004°60'0 0.0
2017-Oct-14 19:30N 43°24' E 004°60'0 0.0
2017-Oct-14 19:00N 43°24' E 004°60'0 0.0
2017-Oct-14 18:27N 43°24' E 004°60'0 0.0
2017-Oct-14 18:00N 43°24' E 004°60'0 0.0
2017-Oct-14 17:30N 43°24' E 004°60'0 0.0
2017-Oct-14 16:57N 43°24' E 004°60'0 0.0
2017-Oct-14 16:27N 43°24' E 004°60'0 0.0
2017-Oct-14 16:00N 43°24' E 004°60'0 0.0
2017-Oct-14 15:30N 43°24' E 004°60'0 0.0
2017-Oct-14 15:00N 43°24' E 004°60'0 0.0
2017-Oct-14 14:30N 43°24' E 004°60'0 0.0
2017-Oct-14 14:00N 43°24' E 004°60'0 0.0
2017-Oct-14 13:30N 43°24' E 004°60'0 0.0
2017-Oct-14 12:57N 43°24' E 004°60'0 0.0
2017-Oct-14 12:30N 43°24' E 004°60'0 0.0
2017-Oct-14 12:00N 43°24' E 004°60'0 0.0
2017-Oct-14 11:27N 43°24' E 004°60'0 0.0
2017-Oct-14 10:57N 43°24' E 004°60'0 0.0
2017-Oct-14 10:30N 43°24' E 004°60'0 0.0
2017-Oct-14 09:57N 43°24' E 004°60'0 0.0
2017-Oct-14 09:30N 43°24' E 004°60'0 0.0
2017-Oct-14 09:00N 43°24' E 004°60'0 0.0
2017-Oct-14 08:30N 43°24' E 004°60'0 0.0
2017-Oct-14 07:57N 43°24' E 004°60'0 0.0
2017-Oct-14 07:30N 43°24' E 004°60'0 0.0
2017-Oct-14 07:00N 43°24' E 004°60'0 0.0
2017-Oct-14 06:30N 43°24' E 004°60'0 0.6
2017-Oct-14 06:00N 43°24' E 004°59'1 2.1
2017-Oct-14 05:26N 43°24' E 004°58'0 0.0
2017-Oct-14 04:59N 43°24' E 004°58'0 0.0
2017-Oct-14 04:29N 43°24' E 004°58'0 0.0
2017-Oct-14 03:59N 43°24' E 004°58'0 0.0
2017-Oct-14 03:26N 43°24' E 004°58'0 0.0
2017-Oct-14 02:59N 43°24' E 004°58'0 0.0
2017-Oct-14 02:26N 43°24' E 004°58'0 0.0
2017-Oct-14 01:59N 43°24' E 004°58'0 0.0
2017-Oct-14 01:29N 43°24' E 004°58'0 0.0
2017-Oct-14 00:59N 43°24' E 004°58'0 0.0
2017-Oct-14 00:29N 43°24' E 004°58'0 0.0
2017-Oct-13 23:59N 43°24' E 004°58'0 0.0
2017-Oct-13 23:29N 43°24' E 004°58'0 0.0
2017-Oct-13 22:59N 43°24' E 004°58'0 0.0
2017-Oct-13 22:29N 43°24' E 004°58'0 0.0
2017-Oct-13 21:59N 43°24' E 004°58'0 0.0
2017-Oct-13 21:29N 43°24' E 004°58'0 0.0
2017-Oct-13 20:59N 43°24' E 004°58'0 0.0
2017-Oct-13 20:29N 43°24' E 004°58'0 0.0
2017-Oct-13 19:59N 43°24' E 004°58'0 0.0
2017-Oct-13 19:26N 43°24' E 004°58'0 0.0
2017-Oct-13 18:56N 43°24' E 004°58'0 0.1
2017-Oct-13 18:29N 43°24' E 004°58'0 0.0
2017-Oct-13 17:59N 43°24' E 004°58'0 0.0
2017-Oct-13 17:29N 43°24' E 004°58'0 0.0
2017-Oct-13 16:59N 43°24' E 004°58'0 0.0
2017-Oct-13 16:29N 43°24' E 004°58'0 0.0
2017-Oct-13 15:59N 43°24' E 004°58'0 0.0
2017-Oct-13 15:27N 43°24' E 004°58'0 0.0
2017-Oct-13 14:59N 43°24' E 004°58'0 0.0
2017-Oct-13 14:29N 43°24' E 004°58'0 0.0
2017-Oct-13 13:59N 43°24' E 004°58'0 0.0
2017-Oct-13 13:29N 43°24' E 004°58'0 0.0
2017-Oct-13 12:59N 43°24' E 004°58'0 0.0
2017-Oct-13 12:29N 43°24' E 004°58'0 0.0
2017-Oct-13 11:59N 43°24' E 004°58'0 0.0
2017-Oct-13 11:30N 43°24' E 004°58'0 0.0
2017-Oct-13 10:59N 43°24' E 004°58'0 0.0
2017-Oct-13 10:29N 43°24' E 004°58'0 0.0
2017-Oct-13 09:59N 43°24' E 004°58'0 0.0
2017-Oct-13 09:29N 43°24' E 004°58'0 0.0
2017-Oct-13 08:59N 43°24' E 004°58'0 0.0
2017-Oct-13 08:26N 43°24' E 004°58'0 0.0
2017-Oct-13 07:59N 43°24' E 004°58'0 0.0
2017-Oct-13 07:30N 43°24' E 004°58'0 0.0
2017-Oct-13 06:57N 43°24' E 004°58'0 0.0
2017-Oct-13 06:29N 43°24' E 004°58'0 0.0
2017-Oct-13 05:56N 43°24' E 004°58'0 0.0
2017-Oct-13 05:26N 43°24' E 004°58'0 0.0
2017-Oct-13 04:59N 43°24' E 004°58'0 0.1
2017-Oct-13 04:29N 43°24' E 004°58'0 0.0
2017-Oct-13 03:59N 43°24' E 004°58'0 0.0
2017-Oct-13 03:29N 43°24' E 004°58'0 0.0
2017-Oct-13 02:59N 43°24' E 004°58'0 0.0
2017-Oct-13 02:29N 43°24' E 004°58'0 0.0
2017-Oct-13 01:59N 43°24' E 004°58'0 0.0
2017-Oct-13 01:29N 43°24' E 004°58'0 0.0
2017-Oct-13 00:59N 43°24' E 004°58'0 0.0
2017-Oct-13 00:26N 43°24' E 004°58'0 0.0
2017-Oct-12 23:56N 43°24' E 004°58'0 0.0
2017-Oct-12 23:29N 43°24' E 004°58'0 0.1
2017-Oct-12 22:59N 43°24' E 004°58'0 0.1
2017-Oct-12 22:29N 43°24' E 004°58'0 0.0
2017-Oct-12 21:59N 43°24' E 004°58'0 0.0
2017-Oct-12 21:29N 43°24' E 004°58'0 0.0
2017-Oct-12 20:56N 43°24' E 004°58'0 0.0
2017-Oct-12 20:29N 43°24' E 004°58'0 0.0
2017-Oct-12 19:59N 43°24' E 004°58'0 0.1
2017-Oct-12 19:29N 43°24' E 004°58'1 1.5
2017-Oct-12 19:00N 43°23' E 004°59'1 1.7
2017-Oct-12 18:30N 43°24' E 004°60'0 0.0
2017-Oct-12 17:59N 43°24' E 004°60'0 0.0
2017-Oct-12 17:29N 43°24' E 004°60'0 0.0
2017-Oct-12 16:59N 43°24' E 004°60'0 0.0
2017-Oct-12 16:29N 43°24' E 004°60'0 0.0
2017-Oct-12 15:59N 43°24' E 004°60'0 0.0
2017-Oct-12 15:26N 43°24' E 004°60'0 0.0
2017-Oct-12 14:59N 43°24' E 004°60'0 0.0
2017-Oct-12 14:26N 43°24' E 004°60'0 0.0
2017-Oct-12 13:59N 43°24' E 004°60'0 0.0
2017-Oct-12 13:26N 43°24' E 004°60'0 0.0
2017-Oct-12 12:56N 43°24' E 004°60'0 0.0
2017-Oct-12 12:29N 43°24' E 004°60'0 0.0
2017-Oct-12 11:50N 43°24' E 004°60'0 0.0
2017-Oct-12 11:26N 43°24' E 004°60'0 0.0
2017-Oct-12 10:53N 43°24' E 004°60'0 0.0
2017-Oct-12 10:29N 43°24' E 004°60'0 0.0
2017-Oct-12 09:59N 43°24' E 004°60'0 0.0
2017-Oct-12 09:29N 43°24' E 004°60'0 0.0
2017-Oct-12 08:59N 43°24' E 004°60'0 0.0
2017-Oct-12 08:26N 43°24' E 004°60'0 0.0
2017-Oct-12 07:59N 43°24' E 004°60'0 0.0
2017-Oct-12 07:29N 43°24' E 004°60'0 0.0
2017-Oct-12 06:59N 43°24' E 004°60'0 0.0
2017-Oct-12 06:29N 43°24' E 004°60'0 0.0
2017-Oct-12 05:56N 43°24' E 004°60'0 0.0
2017-Oct-12 05:26N 43°24' E 004°60'0 0.0
2017-Oct-12 04:59N 43°24' E 004°60'0 0.0
2017-Oct-12 04:26N 43°24' E 004°60'0 0.0
2017-Oct-12 03:56N 43°24' E 004°60'0 0.0
2017-Oct-12 03:26N 43°24' E 004°60'0 0.0
2017-Oct-12 02:59N 43°24' E 004°60'0 0.0
2017-Oct-12 02:29N 43°24' E 004°60'0 0.0
2017-Oct-12 01:56N 43°24' E 004°60'0 0.0
2017-Oct-12 01:29N 43°24' E 004°60'0 0.0
2017-Oct-12 00:59N 43°24' E 004°60'0 0.0
2017-Oct-12 00:26N 43°24' E 004°60'0 0.0
2017-Oct-11 23:56N 43°24' E 004°60'0 0.0
2017-Oct-11 23:26N 43°24' E 004°60'0 0.0
2017-Oct-11 22:59N 43°24' E 004°60'0 0.0
2017-Oct-11 22:29N 43°24' E 004°60'0 0.0
2017-Oct-11 21:59N 43°24' E 004°60'0 0.0
2017-Oct-11 21:29N 43°24' E 004°60'0 0.0
2017-Oct-11 20:59N 43°24' E 004°60'0 0.0
2017-Oct-11 20:29N 43°24' E 004°60'0 0.0
2017-Oct-11 19:59N 43°24' E 004°60'0 0.0
2017-Oct-11 19:29N 43°24' E 004°60'0 0.0
2017-Oct-11 18:56N 43°24' E 004°60'0 0.0
2017-Oct-11 18:26N 43°24' E 004°60'0 0.0
2017-Oct-11 17:59N 43°24' E 004°60'0 0.0
2017-Oct-11 17:29N 43°24' E 004°60'0 0.0
2017-Oct-11 16:59N 43°24' E 004°60'0 0.0
2017-Oct-10 23:56N 43°24' E 004°60'0 0.0
2017-Oct-10 23:29N 43°24' E 004°60'0 0.0
2017-Oct-10 22:56N 43°24' E 004°60'0 0.0
2017-Oct-10 22:30N 43°24' E 004°60'0 0.0
2017-Oct-10 22:00N 43°24' E 004°60'0 0.0
2017-Oct-10 21:30N 43°24' E 004°60'0 0.0
2017-Oct-10 21:00N 43°24' E 004°60'0 0.0
2017-Oct-10 20:30N 43°24' E 004°60'1 2.7
2017-Oct-10 20:00N 43°24' E 004°58'1 1.1
2017-Oct-10 19:28N 43°24' E 004°57'0 0.0
2017-Oct-10 18:58N 43°24' E 004°57'0 0.0
2017-Oct-10 18:28N 43°24' E 004°57'0 0.0
2017-Oct-10 17:58N 43°24' E 004°57'0 0.0
2017-Oct-10 17:28N 43°24' E 004°57'0 0.1
2017-Oct-10 16:58N 43°24' E 004°57'0 0.0
2017-Oct-10 16:28N 43°24' E 004°57'0 0.0
2017-Oct-10 15:58N 43°24' E 004°57'0 0.0
2017-Oct-10 15:28N 43°24' E 004°57'0 0.0
2017-Oct-10 14:58N 43°24' E 004°57'0 0.1
2017-Oct-10 13:58N 43°24' E 004°57'0 0.0
2017-Oct-10 13:28N 43°24' E 004°57'0 0.0
2017-Oct-10 12:55N 43°24' E 004°57'0 0.1
2017-Oct-10 12:28N 43°24' E 004°57'0 0.0
2017-Oct-10 11:55N 43°24' E 004°57'0 0.0
2017-Oct-10 11:25N 43°24' E 004°57'0 0.0
2017-Oct-10 10:58N 43°24' E 004°57'0 0.2
2017-Oct-10 10:29N 43°24' E 004°57'3 6.6
2017-Oct-10 10:00N 43°21' E 004°58'3 6.7
2017-Oct-10 09:30N 43°18' E 004°60'510.6
2017-Oct-10 09:00N 43°13' E 005°02'510.3
2017-Oct-10 08:30N 43°08' E 004°60'612.0
2017-Oct-10 08:00N 43°03' E 004°55'612.1
2017-Oct-10 07:30N 42°59' E 004°50'612.2
2017-Oct-10 07:00N 42°54' E 004°45'612.3
2017-Oct-10 06:30N 42°49' E 004°40'35213.2
2017-Oct-09 03:47N 38°09' W 000°00'413.6
2017-Oct-09 03:30N 38°06' W 000°03'713.5
2017-Oct-09 03:00N 38°00' W 000°08'1113.5
2017-Oct-09 02:09N 37°51' W 000°16'313.6
2017-Oct-09 01:57N 37°48' W 000°18'613.8
2017-Oct-09 01:30N 37°43' W 000°22'  

Dump ship's entire track history